Time;durP1;ratioP1;P1;durP2;ratioP2;P2;SDS_P1;SDS_P2;PMS_P1;PMS_P2;Temp;Humidity;BMP_temperature;BMP_pressure;BME280_temperature;BME280_humidity;BME280_pressure;Samples;Min_cycle;Max_cycle;Signal;HPM_P1;HPM_P2
2023/02/22 00:00:41;;;;;;;3.75;2.15;;;22.20;44.00;;;;;;5129054;27;20103;-62
2023/02/22 00:03:11;;;;;;;3.92;1.92;;;22.20;44.00;;;;;;5129114;27;20556;-61
2023/02/22 00:05:39;;;;;;;3.83;2.30;;;22.20;44.00;;;;;;5129182;27;20042;-61
2023/02/22 00:08:09;;;;;;;3.05;2.33;;;22.20;44.00;;;;;;5128975;27;20058;-62
2023/02/22 00:10:38;;;;;;;2.38;1.83;;;22.20;44.10;;;;;;5129126;27;20054;-61
2023/02/22 00:13:07;;;;;;;2.90;1.63;;;22.10;44.00;;;;;;5128575;27;20051;-62
2023/02/22 00:15:35;;;;;;;2.85;2.05;;;22.20;44.10;;;;;;5128712;27;20043;-62
2023/02/22 00:18:03;;;;;;;1.95;1.45;;;22.10;44.40;;;;;;5128897;27;20092;-62
2023/02/22 00:20:30;;;;;;;2.05;1.95;;;22.10;44.10;;;;;;5128648;27;20074;-62
2023/02/22 00:23:00;;;;;;;2.95;2.35;;;22.10;44.30;;;;;;5128608;27;20530;-62
2023/02/22 00:25:28;;;;;;;1.85;1.17;;;22.10;44.40;;;;;;5128868;27;20038;-62
2023/02/22 00:27:55;;;;;;;2.20;1.88;;;22.10;44.50;;;;;;5128151;27;20805;-62
2023/02/22 00:30:25;;;;;;;2.17;1.48;;;22.10;44.50;;;;;;5109902;27;20043;-63
2023/02/22 00:32:54;;;;;;;2.13;1.85;;;22.10;44.50;;;;;;5109927;27;20043;-62
2023/02/22 00:35:24;;;;;;;3.20;1.83;;;22.10;44.60;;;;;;5126947;27;20054;-62
2023/02/22 00:37:54;;;;;;;2.92;1.27;;;22.10;44.60;;;;;;5128404;27;20044;-61
2023/02/22 00:40:23;;;;;;;1.33;1.23;;;22.10;44.50;;;;;;5109965;27;20041;-61
2023/02/22 00:42:51;;;;;;;1.90;1.30;;;22.10;44.60;;;;;;5127632;27;20047;-62
2023/02/22 00:45:21;;;;;;;4.90;1.60;;;22.10;44.60;;;;;;5127361;27;20066;-62
2023/02/22 00:47:48;;;;;;;1.63;1.30;;;22.10;44.80;;;;;;5109549;27;20766;-61
2023/02/22 00:50:15;;;;;;;1.77;1.67;;;22.10;44.70;;;;;;5128431;27;20750;-61
2023/02/22 00:52:43;;;;;;;3.83;2.05;;;22.10;44.70;;;;;;5127651;27;20047;-62
2023/02/22 00:55:15;;;;;;;3.70;1.85;;;22.10;44.60;;;;;;5109395;27;20071;-61
2023/02/22 00:57:42;;;;;;;3.15;2.08;;;22.10;44.70;;;;;;5091933;27;20051;-61
2023/02/22 01:00:17;;;;;;;4.80;2.47;;;22.10;44.80;;;;;;5108899;27;20035;-62
2023/02/22 01:02:45;;;;;;;3.33;1.77;;;22.10;44.80;;;;;;5139795;27;20043;-61
2023/02/22 01:05:15;;;;;;;2.33;1.35;;;22.10;44.80;;;;;;5127665;27;20122;-61
2023/02/22 01:07:42;;;;;;;7.90;1.60;;;22.10;44.80;;;;;;5127806;27;20096;-61
2023/02/22 01:10:10;;;;;;;2.88;2.08;;;22.10;44.80;;;;;;5127390;27;20053;-61
2023/02/22 01:12:38;;;;;;;1.83;1.38;;;22.10;44.90;;;;;;5127063;27;20800;-61
2023/02/22 01:15:10;;;;;;;1.88;1.70;;;22.10;44.90;;;;;;5125964;27;20046;-61
2023/02/22 01:17:40;;;;;;;3.90;2.55;;;22.10;44.90;;;;;;5126017;27;20043;-61
2023/02/22 01:20:11;;;;;;;2.13;1.08;;;22.10;44.90;;;;;;5108684;27;20054;-61
2023/02/22 01:22:38;;;;;;;3.78;1.80;;;22.10;44.90;;;;;;5126893;27;20138;-62
2023/02/22 01:25:07;;;;;;;2.08;1.65;;;22.10;44.70;;;;;;5127247;27;20391;-61
2023/02/22 01:27:34;;;;;;;1.77;1.60;;;22.10;44.80;;;;;;5108299;27;20051;-61
2023/02/22 01:30:07;;;;;;;2.63;1.45;;;22.10;44.80;;;;;;5127195;27;20039;-61
2023/02/22 01:32:35;;;;;;;9.23;1.80;;;22.10;44.80;;;;;;5127252;27;20053;-60
2023/02/22 01:35:07;;;;;;;2.25;2.08;;;22.10;44.80;;;;;;5125765;27;20042;-62
2023/02/22 01:37:34;;;;;;;1.88;1.50;;;22.10;44.80;;;;;;5127501;27;20047;-63
2023/02/22 01:40:01;;;;;;;1.88;1.77;;;22.10;45.20;;;;;;5110858;28;20039;-62
2023/02/22 01:42:29;;;;;;;2.90;1.60;;;22.10;44.70;;;;;;5107941;27;20578;-62
2023/02/22 01:45:34;;;;;;;3.92;1.63;;;22.00;45.30;;;;;;5127260;27;20035;-61
2023/02/22 01:48:04;;;;;;;2.17;1.67;;;22.10;44.70;;;;;;5127352;28;20070;-63
2023/02/22 01:50:37;;;;;;;3.85;2.38;;;22.00;44.80;;;;;;5107264;28;20039;-60
2023/02/22 01:53:06;;;;;;;2.05;1.95;;;22.00;44.80;;;;;;5107811;28;20044;-62
2023/02/22 01:55:34;;;;;;;2.50;1.95;;;22.00;44.80;;;;;;5125477;28;20840;-62
2023/02/22 01:58:03;;;;;;;1.60;1.50;;;22.00;44.90;;;;;;5106625;28;20114;-62
2023/02/22 02:00:30;;;;;;;3.35;1.55;;;22.00;44.80;;;;;;5107105;28;20384;-62
2023/02/22 02:03:11;;;;;;;1.20;1.08;;;22.00;44.80;;;;;;5107517;28;20050;-61
2023/02/22 02:05:40;;;;;;;1.83;1.73;;;22.00;44.80;;;;;;5124791;28;20043;-62
2023/02/22 02:08:16;;;;;;;1.42;1.27;;;22.00;44.80;;;;;;5126329;27;20055;-60
2023/02/22 02:10:44;;;;;;;9.93;2.15;;;22.00;44.80;;;;;;5126632;28;20092;-61
2023/02/22 02:13:11;;;;;;;2.20;1.70;;;22.00;44.80;;;;;;5125275;28;20035;-61
2023/02/22 02:15:39;;;;;;;2.70;1.05;;;22.00;44.70;;;;;;5126749;28;20414;-62
2023/02/22 02:18:10;;;;;;;2.67;1.13;;;22.00;44.70;;;;;;5108399;28;20036;-62
2023/02/22 02:20:47;;;;;;;2.33;2.10;;;22.00;44.70;;;;;;5125175;28;20047;-62
2023/02/22 02:23:40;;;;;;;3.40;1.97;;;22.00;44.60;;;;;;5126218;28;20131;-62
2023/02/22 02:26:28;;;;;;;4.53;1.40;;;22.00;44.60;;;;;;5022474;28;20311;-61
2023/02/22 02:29:50;;;;;;;1.77;1.40;;;22.00;44.60;;;;;;5006123;28;20526;-60
2023/02/22 02:32:34;;;;;;;1.95;1.85;;;22.00;44.70;;;;;;4960557;28;20761;-61
2023/02/22 02:35:11;;;;;;;2.28;2.08;;;22.00;44.70;;;;;;4983816;28;20061;-62
2023/02/22 02:37:48;;;;;;;6.35;1.70;;;21.90;44.70;;;;;;4987499;28;20137;-61
2023/02/22 02:40:21;;;;;;;2.83;2.17;;;21.90;44.70;;;;;;4967745;28;20058;-61
2023/02/22 02:42:58;;;;;;;5.07;1.70;;;22.00;44.80;;;;;;4967558;28;20714;-61
2023/02/22 02:45:32;;;;;;;3.60;2.10;;;21.90;44.80;;;;;;4967655;28;20645;-60
2023/02/22 02:48:03;;;;;;;1.70;1.50;;;21.90;44.80;;;;;;4967642;28;20047;-60
2023/02/22 02:50:35;;;;;;;1.50;1.40;;;21.90;44.70;;;;;;4967478;28;20047;-61
2023/02/22 02:53:07;;;;;;;2.00;1.35;;;21.90;44.70;;;;;;4967854;28;20310;-60
2023/02/22 02:55:35;;;;;;;3.50;2.50;;;21.90;44.70;;;;;;4967414;28;20051;-61
2023/02/22 02:58:04;;;;;;;1.65;1.55;;;21.90;44.80;;;;;;4967061;28;20097;-61
2023/02/22 03:00:38;;;;;;;4.22;2.22;;;21.90;44.80;;;;;;4949946;28;20058;-61
2023/02/22 03:03:28;;;;;;;4.22;1.95;;;21.90;44.70;;;;;;5023690;27;20396;-61
2023/02/22 03:06:20;;;;;;;2.22;1.50;;;21.90;44.70;;;;;;5094167;27;20047;-61
2023/02/22 03:08:57;;;;;;;3.15;2.60;;;21.90;44.70;;;;;;5129518;27;20092;-58
2023/02/22 03:11:30;;;;;;;3.13;1.88;;;21.90;44.70;;;;;;5129913;27;20126;-60
2023/02/22 03:14:09;;;;;;;2.53;1.88;;;21.90;44.70;;;;;;5111249;27;20591;-62
2023/02/22 03:16:45;;;;;;;2.80;1.13;;;21.80;44.70;;;;;;5111134;27;20053;-61
2023/02/22 03:19:21;;;;;;;4.25;2.08;;;21.90;44.80;;;;;;5129299;27;20035;-60
2023/02/22 03:21:56;;;;;;;3.60;2.63;;;21.90;44.80;;;;;;5110439;27;20391;-61
2023/02/22 03:24:30;;;;;;;1.60;1.50;;;21.90;44.80;;;;;;5127793;27;20593;-61
2023/02/22 03:27:03;;;;;;;4.25;2.85;;;21.90;44.80;;;;;;5128057;27;20051;-61
2023/02/22 03:29:35;;;;;;;1.50;1.40;;;21.90;44.90;;;;;;5110742;27;20050;-63
2023/02/22 03:32:10;;;;;;;4.28;2.80;;;21.80;44.80;;;;;;5135648;27;20043;-63
2023/02/22 03:34:44;;;;;;;2.05;1.70;;;21.90;44.80;;;;;;5110762;27;20428;-62
2023/02/22 03:37:17;;;;;;;1.65;1.63;;;21.80;44.80;;;;;;5127601;27;20043;-61
2023/02/22 03:39:50;;;;;;;1.75;1.65;;;21.80;44.70;;;;;;5129024;27;20039;-63
2023/02/22 03:42:21;;;;;;;4.60;1.73;;;21.90;45.20;;;;;;5129498;27;20051;-63
2023/02/22 03:44:51;;;;;;;3.10;1.92;;;21.80;44.70;;;;;;5129364;27;20504;-63
2023/02/22 03:47:22;;;;;;;1.90;1.80;;;21.80;44.70;;;;;;5127326;27;20521;-62
2023/02/22 03:49:57;;;;;;;5.82;1.45;;;21.80;44.60;;;;;;5128133;27;20096;-64
2023/02/22 03:52:26;;;;;;;2.08;1.98;;;21.80;44.60;;;;;;5127620;27;20118;-60
2023/02/22 03:54:53;;;;;;;3.15;1.75;;;21.80;44.70;;;;;;5127716;27;20122;-61
2023/02/22 03:57:26;;;;;;;1.70;1.60;;;21.80;44.60;;;;;;5127454;27;20119;-59
2023/02/22 04:00:06;;;;;;;2.35;1.15;;;21.80;44.50;;;;;;5127751;27;20065;-62
2023/02/22 04:02:39;;;;;;;2.85;1.83;;;21.80;44.60;;;;;;5124143;27;20135;-62
2023/02/22 04:05:10;;;;;;;2.38;1.23;;;21.80;44.70;;;;;;5110501;27;20031;-62
2023/02/22 04:07:37;;;;;;;3.13;1.33;;;21.80;44.70;;;;;;5110265;27;20688;-62
2023/02/22 04:10:07;;;;;;;2.63;1.38;;;21.80;44.70;;;;;;5110582;27;20088;-63
2023/02/22 04:12:34;;;;;;;1.85;1.25;;;21.80;44.70;;;;;;5110445;27;20047;-62
2023/02/22 04:15:05;;;;;;;1.20;1.10;;;21.70;44.70;;;;;;5128975;27;20028;-61
2023/02/22 04:17:32;;;;;;;1.58;0.68;;;21.80;44.80;;;;;;5127584;27;20071;-62
2023/02/22 04:20:00;;;;;;;1.83;1.02;;;21.80;44.90;;;;;;5127015;27;20092;-63
2023/02/22 04:22:36;;;;;;;2.28;1.17;;;21.80;44.90;;;;;;5126044;27;20055;-63
2023/02/22 04:25:04;;;;;;;6.15;2.47;;;21.80;44.90;;;;;;5110276;27;20035;-63
2023/02/22 04:27:31;;;;;;;1.77;1.17;;;21.80;44.90;;;;;;5109588;27;20064;-63
2023/02/22 04:29:58;;;;;;;1.65;1.48;;;21.70;44.80;;;;;;5109988;27;20100;-64
2023/02/22 04:32:26;;;;;;;3.38;1.48;;;21.70;44.80;;;;;;5109878;27;20049;-62
2023/02/22 04:34:53;;;;;;;4.20;2.67;;;21.80;45.50;;;;;;5109783;27;20039;-63
2023/02/22 04:37:20;;;;;;;2.10;1.88;;;21.70;44.80;;;;;;5127818;27;20049;-63
2023/02/22 04:39:49;;;;;;;3.00;1.50;;;21.70;44.80;;;;;;5126557;27;20054;-64
2023/02/22 04:42:17;;;;;;;2.30;1.45;;;21.70;44.80;;;;;;5110031;27;20053;-63
2023/02/22 04:44:45;;;;;;;2.80;2.65;;;21.80;44.90;;;;;;5109581;27;20069;-62
2023/02/22 04:47:12;;;;;;;3.45;1.98;;;21.70;44.80;;;;;;5127994;27;20146;-63
2023/02/22 04:49:40;;;;;;;1.92;1.23;;;21.70;44.80;;;;;;5108879;27;20507;-63
2023/02/22 04:52:07;;;;;;;2.47;1.45;;;21.70;44.80;;;;;;5108509;27;20035;-62
2023/02/22 04:54:38;;;;;;;5.50;1.52;;;21.70;44.80;;;;;;5109171;27;20100;-62
2023/02/22 04:57:08;;;;;;;2.75;1.73;;;21.70;44.90;;;;;;5109692;27;20050;-62
2023/02/22 04:59:37;;;;;;;2.35;1.45;;;21.70;44.80;;;;;;5108894;27;20519;-62
2023/02/22 05:02:04;;;;;;;1.38;1.27;;;21.70;44.80;;;;;;5109161;27;20051;-62
2023/02/22 05:04:31;;;;;;;1.67;1.35;;;21.70;44.80;;;;;;5127962;27;20088;-61
2023/02/22 05:06:58;;;;;;;1.40;1.35;;;21.70;44.80;;;;;;5126994;27;20039;-62
2023/02/22 05:09:25;;;;;;;3.33;1.45;;;21.70;44.90;;;;;;5127161;27;20526;-63
2023/02/22 05:11:52;;;;;;;3.30;1.10;;;21.70;44.70;;;;;;5127500;27;20759;-62
2023/02/22 05:14:25;;;;;;;1.45;1.08;;;21.70;44.80;;;;;;5127465;27;20126;-62
2023/02/22 05:16:53;;;;;;;1.65;0.98;;;21.70;44.80;;;;;;5127688;27;20100;-62
2023/02/22 05:19:20;;;;;;;1.95;1.65;;;21.70;44.80;;;;;;5126844;27;20043;-62
2023/02/22 05:21:48;;;;;;;1.23;1.13;;;21.70;44.70;;;;;;5126934;27;20122;-62
2023/02/22 05:24:15;;;;;;;3.03;1.83;;;21.70;44.70;;;;;;5127278;27;20035;-62
2023/02/22 05:26:43;;;;;;;1.35;1.00;;;21.70;44.70;;;;;;5126995;27;20099;-61
2023/02/22 05:29:11;;;;;;;1.52;1.30;;;21.70;44.60;;;;;;5126646;27;20058;-62
2023/02/22 05:31:40;;;;;;;1.65;1.55;;;21.70;44.70;;;;;;5126930;27;20525;-62
2023/02/22 05:34:07;;;;;;;2.35;1.48;;;21.70;44.70;;;;;;5126687;27;20598;-62
2023/02/22 05:36:34;;;;;;;1.42;1.33;;;21.70;44.80;;;;;;5126995;27;20055;-62
2023/02/22 05:39:02;;;;;;;2.60;1.27;;;21.70;44.80;;;;;;5126735;27;20035;-62
2023/02/22 05:41:29;;;;;;;0.73;0.73;;;21.70;44.80;;;;;;5127218;27;20047;-62
2023/02/22 05:43:56;;;;;;;1.40;1.40;;;21.70;44.80;;;;;;5126502;27;20109;-62
2023/02/22 05:46:24;;;;;;;1.48;1.10;;;21.70;44.80;;;;;;5126938;27;20044;-62
2023/02/22 05:48:52;;;;;;;3.58;1.05;;;21.70;44.80;;;;;;5126599;28;20054;-61
2023/02/22 05:51:19;;;;;;;1.30;1.20;;;21.70;44.80;;;;;;5126854;28;20052;-60
2023/02/22 05:53:46;;;;;;;3.20;0.98;;;21.70;44.80;;;;;;5126871;28;20035;-61
2023/02/22 05:56:14;;;;;;;1.33;1.20;;;21.70;44.80;;;;;;5126443;28;20407;-60
2023/02/22 05:58:42;;;;;;;2.83;0.88;;;21.70;44.80;;;;;;5126232;28;20047;-60
2023/02/22 06:01:10;;;;;;;3.13;1.08;;;21.70;44.90;;;;;;5126655;28;20588;-60
2023/02/22 06:03:38;;;;;;;0.90;0.88;;;21.70;44.90;;;;;;5126473;28;20396;-61
2023/02/22 06:06:07;;;;;;;2.38;1.23;;;21.70;44.90;;;;;;5126660;28;20129;-61
2023/02/22 06:08:34;;;;;;;2.00;1.48;;;21.70;44.90;;;;;;5126502;28;20046;-61
2023/02/22 06:11:04;;;;;;;1.30;1.15;;;21.60;44.90;;;;;;5129474;27;20100;-62
2023/02/22 06:13:31;;;;;;;1.10;0.98;;;21.60;44.90;;;;;;5130252;27;20503;-61
2023/02/22 06:15:58;;;;;;;3.60;1.38;;;21.60;45.00;;;;;;5130753;27;20049;-61
2023/02/22 06:18:29;;;;;;;2.03;1.45;;;21.60;44.90;;;;;;5130499;27;20079;-61
2023/02/22 06:20:56;;;;;;;2.03;1.52;;;21.60;45.00;;;;;;5130741;27;20079;-61
2023/02/22 06:23:24;;;;;;;2.78;1.35;;;21.60;45.00;;;;;;5130372;27;20051;-61
2023/02/22 06:25:52;;;;;;;1.83;1.52;;;21.60;45.00;;;;;;5130427;27;20054;-61
2023/02/22 06:28:19;;;;;;;1.45;1.35;;;21.60;45.00;;;;;;5129932;27;20051;-60
2023/02/22 06:30:46;;;;;;;2.35;1.00;;;21.60;45.00;;;;;;5130300;27;20051;-65
2023/02/22 06:33:13;;;;;;;8.15;1.40;;;21.60;45.00;;;;;;5129713;27;20384;-54
2023/02/22 06:35:40;;;;;;;5.97;5.38;;;21.60;45.10;;;;;;5129874;27;20437;-58
2023/02/22 06:38:07;;;;;;;8.35;6.50;;;21.50;43.70;;;;;;5128873;27;20092;-55
2023/02/22 06:40:36;;;;;;;9.45;7.05;;;21.30;43.00;;;;;;5130159;27;20185;-60
2023/02/22 06:43:03;;;;;;;9.00;7.72;;;20.90;42.80;;;;;;5127872;27;20043;-58
2023/02/22 06:45:31;;;;;;;10.65;8.52;;;20.60;42.90;;;;;;5130875;27;20445;-58
2023/02/22 06:47:58;;;;;;;12.27;7.68;;;20.20;43.10;;;;;;5123025;27;20031;-60
2023/02/22 06:50:27;;;;;;;11.40;7.65;;;19.80;43.60;;;;;;5134946;27;20110;-59
2023/02/22 06:52:55;;;;;;;9.02;7.45;;;19.40;44.30;;;;;;5101576;27;20043;-59
2023/02/22 06:55:24;;;;;;;15.50;7.93;;;19.10;45.00;;;;;;5149965;27;20107;-59
2023/02/22 06:57:53;;;;;;;17.92;10.15;;;18.80;45.50;;;;;;5136439;27;20047;-58
2023/02/22 07:00:24;;;;;;;12.27;8.55;;;18.60;46.10;;;;;;5134869;27;20470;-60
2023/02/22 07:02:51;;;;;;;11.70;7.97;;;18.40;46.50;;;;;;5133313;27;20031;-59
2023/02/22 07:05:20;;;;;;;9.85;8.55;;;18.20;47.00;;;;;;5112519;27;20134;-62
2023/02/22 07:07:48;;;;;;;13.82;8.55;;;18.00;47.50;;;;;;5136654;27;20494;-57
2023/02/22 07:10:20;;;;;;;11.57;7.90;;;17.80;47.80;;;;;;5141645;27;20776;-59
2023/02/22 07:12:47;;;;;;;11.43;7.55;;;17.70;48.20;;;;;;5150085;27;20042;-59
2023/02/22 07:15:20;;;;;;;10.48;7.35;;;17.50;48.60;;;;;;5149690;27;20043;-58
2023/02/22 07:17:47;;;;;;;11.35;7.85;;;17.40;48.90;;;;;;5142294;27;20502;-54
2023/02/22 07:20:14;;;;;;;13.15;9.25;;;17.30;49.20;;;;;;5140391;27;20046;-59
2023/02/22 07:22:41;;;;;;;12.18;9.00;;;17.30;49.40;;;;;;5144473;27;20138;-56
2023/02/22 07:25:10;;;;;;;12.43;9.35;;;17.20;49.80;;;;;;5149588;27;20035;-58
2023/02/22 07:27:40;;;;;;;10.77;8.23;;;17.10;49.90;;;;;;5145195;27;20507;-57
2023/02/22 07:30:08;;;;;;;11.05;9.75;;;17.00;50.00;;;;;;5139706;27;20050;-59
2023/02/22 07:32:36;;;;;;;12.07;9.27;;;16.90;50.30;;;;;;5149764;27;20050;-58
2023/02/22 07:35:04;;;;;;;20.15;10.30;;;16.90;50.60;;;;;;5149379;27;20126;-59
2023/02/22 07:37:32;;;;;;;12.63;10.13;;;16.80;50.90;;;;;;5137856;27;20110;-55
2023/02/22 07:39:59;;;;;;;13.80;10.07;;;16.70;51.20;;;;;;5141110;27;20157;-58
2023/02/22 07:42:26;;;;;;;15.65;11.48;;;16.60;51.30;;;;;;5149320;27;20510;-56
2023/02/22 07:44:53;;;;;;;11.50;9.75;;;16.60;51.50;;;;;;5148788;27;20046;-56
2023/02/22 07:47:20;;;;;;;15.30;10.68;;;16.50;51.70;;;;;;5113702;27;20047;-57
2023/02/22 07:49:49;;;;;;;15.70;11.65;;;16.50;52.00;;;;;;5146762;27;20577;-58
2023/02/22 07:52:16;;;;;;;16.80;10.00;;;16.50;52.20;;;;;;5130100;27;20134;-59
2023/02/22 07:54:46;;;;;;;24.75;11.63;;;16.40;52.50;;;;;;5137363;27;20043;-60
2023/02/22 07:57:13;;;;;;;19.90;10.98;;;16.30;52.60;;;;;;5148362;27;20766;-59
2023/02/22 07:59:40;;;;;;;11.85;9.75;;;16.30;52.80;;;;;;5143006;27;20042;-57
2023/02/22 08:02:15;;;;;;;16.33;10.93;;;16.30;53.00;;;;;;5149144;27;20038;-58
2023/02/22 08:04:42;;;;;;;20.17;10.65;;;16.20;53.20;;;;;;5149371;27;20045;-60
2023/02/22 08:07:10;;;;;;;14.50;11.82;;;16.20;53.40;;;;;;5135685;27;20036;-56
2023/02/22 08:09:37;;;;;;;16.73;10.90;;;16.10;53.60;;;;;;5140610;27;20367;-59
2023/02/22 08:12:04;;;;;;;14.75;12.02;;;16.10;53.70;;;;;;5148684;27;20034;-58
2023/02/22 08:14:31;;;;;;;13.93;12.25;;;16.00;53.80;;;;;;5148573;27;20061;-60
2023/02/22 08:16:58;;;;;;;14.48;11.43;;;16.00;54.00;;;;;;5148831;27;20497;-57
2023/02/22 08:19:25;;;;;;;21.15;13.10;;;16.00;54.20;;;;;;5145190;27;20054;-57
2023/02/22 08:21:52;;;;;;;15.57;12.35;;;16.00;54.30;;;;;;5117958;27;20051;-59
2023/02/22 08:24:21;;;;;;;17.95;13.27;;;16.00;54.50;;;;;;5144255;27;20039;-55
2023/02/22 08:26:48;;;;;;;16.85;13.05;;;15.90;54.60;;;;;;5144674;27;20043;-63
2023/02/22 08:29:15;;;;;;;21.27;13.57;;;15.90;54.70;;;;;;5132371;27;20047;-62
2023/02/22 08:31:42;;;;;;;17.70;13.60;;;15.90;54.90;;;;;;5134629;27;20566;-62
2023/02/22 08:34:09;;;;;;;19.33;12.25;;;15.90;55.00;;;;;;5139527;27;20114;-63
2023/02/22 08:36:41;;;;;;;22.60;13.80;;;15.90;54.90;;;;;;5142580;27;20138;-61
2023/02/22 08:39:08;;;;;;;19.23;15.05;;;16.00;55.10;;;;;;5139738;27;20039;-61
2023/02/22 08:41:36;;;;;;;17.05;12.80;;;16.00;55.10;;;;;;5130073;27;20035;-64
2023/02/22 08:44:03;;;;;;;18.60;14.10;;;16.00;55.10;;;;;;5147917;27;20101;-64
2023/02/22 08:46:30;;;;;;;23.65;16.83;;;16.00;55.20;;;;;;5148205;27;20844;-58
2023/02/22 08:48:58;;;;;;;21.60;16.10;;;15.90;55.20;;;;;;5130351;27;20198;-61
2023/02/22 08:51:25;;;;;;;20.90;15.43;;;15.90;55.20;;;;;;5136776;27;20171;-61
2023/02/22 08:53:53;;;;;;;19.40;12.98;;;15.90;55.40;;;;;;5136615;27;20485;-62
2023/02/22 08:56:22;;;;;;;15.15;10.90;;;16.00;56.10;;;;;;5127443;27;20095;-60
2023/02/22 08:58:50;;;;;;;15.85;10.15;;;16.20;56.40;;;;;;5131116;27;20050;-62
2023/02/22 09:01:17;;;;;;;12.95;10.30;;;16.50;56.30;;;;;;5114022;27;20035;-58
2023/02/22 09:03:48;;;;;;;16.52;9.35;;;16.80;55.90;;;;;;5148005;27;20046;-57
2023/02/22 09:06:16;;;;;;;11.50;10.07;;;17.10;55.50;;;;;;5147791;27;20446;-56
2023/02/22 09:08:43;;;;;;;10.38;7.78;;;17.30;55.10;;;;;;5140162;27;20047;-55
2023/02/22 09:11:10;;;;;;;9.38;8.38;;;17.60;54.70;;;;;;5146353;27;20553;-58
2023/02/22 09:13:37;;;;;;;13.38;8.77;;;17.80;54.30;;;;;;5142092;27;20054;-60
2023/02/22 09:16:06;;;;;;;11.20;7.75;;;18.00;53.90;;;;;;5147570;27;20082;-59
2023/02/22 09:18:34;;;;;;;9.43;7.05;;;18.20;53.60;;;;;;5147431;27;20031;-60
2023/02/22 09:21:01;;;;;;;40.15;8.82;;;18.40;53.30;;;;;;5129005;27;20154;-60
2023/02/22 09:23:28;;;;;;;10.77;7.72;;;18.50;53.00;;;;;;5131887;27;20149;-65
2023/02/22 09:25:56;;;;;;;8.18;7.28;;;18.70;52.50;;;;;;5135574;27;20073;-65
2023/02/22 09:28:23;;;;;;;10.23;7.00;;;18.90;52.20;;;;;;5126892;27;20554;-65
2023/02/22 09:30:50;;;;;;;7.82;6.45;;;19.10;51.80;;;;;;5126844;27;20578;-64
2023/02/22 09:33:20;;;;;;;9.63;7.70;;;19.20;51.30;;;;;;5108399;27;20482;-64
2023/02/22 09:35:49;;;;;;;7.88;7.03;;;19.40;50.90;;;;;;5127339;27;20043;-64
2023/02/22 09:38:19;;;;;;;10.75;8.25;;;19.60;50.50;;;;;;5109214;27;20514;-65
2023/02/22 09:40:48;;;;;;;10.35;6.97;;;19.70;50.10;;;;;;5126370;27;20065;-62
2023/02/22 09:43:26;;;;;;;11.55;8.55;;;19.90;49.80;;;;;;5126950;27;20037;-60
2023/02/22 09:46:12;;;;;;;8.13;6.82;;;20.10;49.40;;;;;;5122194;27;20049;-57
2023/02/22 09:49:02;;;;;;;10.77;9.23;;;20.20;49.10;;;;;;5115597;27;20066;-61
2023/02/22 09:51:35;;;;;;;11.23;7.18;;;20.30;48.70;;;;;;5114560;27;20925;-66
2023/02/22 09:54:06;;;;;;;8.65;6.88;;;20.50;48.40;;;;;;5142013;27;20051;-67
2023/02/22 09:56:34;;;;;;;14.27;6.90;;;20.60;48.10;;;;;;5146686;27;20538;-69
2023/02/22 09:59:05;;;;;;;8.15;7.28;;;20.80;47.80;;;;;;5137271;27;20042;-68
2023/02/22 10:01:38;;;;;;;7.88;7.03;;;20.90;47.50;;;;;;5140274;27;20046;-67
2023/02/22 10:04:17;;;;;;;9.85;7.65;;;21.00;47.20;;;;;;5136838;27;20054;-67
2023/02/22 10:07:00;;;;;;;9.23;6.68;;;21.10;46.90;;;;;;5117695;27;20087;-68
2023/02/22 10:09:29;;;;;;;6.95;6.30;;;21.30;46.70;;;;;;5141288;27;20513;-69
2023/02/22 10:11:59;;;;;;;7.25;6.38;;;21.30;46.50;;;;;;5137147;27;20053;-67
2023/02/22 10:14:43;;;;;;;8.23;6.05;;;21.40;46.20;;;;;;5146563;27;20039;-68
2023/02/22 10:17:22;;;;;;;8.27;6.97;;;21.50;46.00;;;;;;5146887;27;20057;-68
2023/02/22 10:20:05;;;;;;;8.88;6.95;;;21.60;45.80;;;;;;5139978;27;20051;-68
2023/02/22 10:22:44;;;;;;;9.27;7.30;;;21.70;45.60;;;;;;5124478;27;20150;-68
2023/02/22 10:25:16;;;;;;;7.45;6.65;;;21.70;45.40;;;;;;5094513;28;20048;-66
2023/02/22 10:27:48;;;;;;;10.40;8.15;;;21.80;45.20;;;;;;5117730;28;20963;-67
2023/02/22 10:30:21;;;;;;;19.85;7.85;;;21.90;45.00;;;;;;5120812;28;21532;-66
2023/02/22 10:32:53;;;;;;;11.30;6.88;;;22.00;44.90;;;;;;5116285;28;20032;-67
2023/02/22 10:35:25;;;;;;;19.27;7.05;;;22.00;44.80;;;;;;5116121;28;20521;-54
2023/02/22 10:37:57;;;;;;;15.15;6.30;;;22.10;44.80;;;;;;5084157;28;20062;-57
2023/02/22 10:40:30;;;;;;;14.77;5.22;;;22.20;45.10;;;;;;5104095;28;20051;-57
2023/02/22 10:43:01;;;;;;;9.65;4.72;;;22.20;45.10;;;;;;5103626;28;20039;-56
2023/02/22 10:45:31;;;;;;;12.10;5.63;;;22.30;45.10;;;;;;5103737;28;20040;-55
2023/02/22 10:48:01;;;;;;;13.05;6.47;;;22.30;44.90;;;;;;5104001;28;20043;-57
2023/02/22 10:50:33;;;;;;;9.77;5.00;;;22.30;44.80;;;;;;5104324;28;20581;-57
2023/02/22 10:53:00;;;;;;;8.45;6.88;;;22.30;44.70;;;;;;5103722;28;20402;-58
2023/02/22 10:55:27;;;;;;;7.10;5.30;;;22.30;44.60;;;;;;5103975;28;20036;-56
2023/02/22 10:58:01;;;;;;;9.35;5.47;;;22.30;44.60;;;;;;5107834;28;20044;-58
2023/02/22 11:00:31;;;;;;;13.65;6.32;;;22.30;44.60;;;;;;5109246;28;20723;-56
2023/02/22 11:03:00;;;;;;;6.53;5.30;;;22.20;44.40;;;;;;5109181;28;20040;-56
2023/02/22 11:05:36;;;;;;;6.80;5.18;;;22.20;44.40;;;;;;5108806;28;20040;-57
2023/02/22 11:08:23;;;;;;;10.00;5.47;;;22.20;44.40;;;;;;5108555;28;20043;-58
2023/02/22 11:10:52;;;;;;;9.38;5.63;;;22.20;44.30;;;;;;5108964;28;20051;-52
2023/02/22 11:13:25;;;;;;;6.88;5.72;;;22.10;44.40;;;;;;5109040;28;20028;-56
2023/02/22 11:15:55;;;;;;;6.10;5.50;;;22.10;44.30;;;;;;5109090;28;20119;-54
2023/02/22 11:18:26;;;;;;;6.32;5.88;;;22.00;44.30;;;;;;5108940;28;20044;-56
2023/02/22 11:21:08;;;;;;;6.55;5.75;;;22.00;44.30;;;;;;5108643;28;20044;-56
2023/02/22 11:23:38;;;;;;;7.20;5.82;;;22.00;44.30;;;;;;5125489;27;20198;-55
2023/02/22 11:26:08;;;;;;;5.97;5.40;;;22.00;44.40;;;;;;5110674;27;20434;-58
2023/02/22 11:28:37;;;;;;;6.90;6.03;;;21.90;44.30;;;;;;5128968;27;20054;-57
2023/02/22 11:31:14;;;;;;;6.32;5.70;;;21.90;44.30;;;;;;5128936;27;20035;-58
2023/02/22 11:33:51;;;;;;;6.30;5.68;;;21.90;44.30;;;;;;5110746;27;20051;-58
2023/02/22 11:36:36;;;;;;;9.13;5.30;;;21.90;44.40;;;;;;5129025;27;20058;-57
2023/02/22 11:39:10;;;;;;;6.18;4.95;;;21.90;45.00;;;;;;5128987;27;20092;-57
2023/02/22 11:41:37;;;;;;;6.93;6.10;;;21.80;45.00;;;;;;5129217;27;20038;-57
2023/02/22 11:44:22;;;;;;;5.75;5.18;;;21.80;44.40;;;;;;5128747;27;20042;-58
2023/02/22 11:46:50;;;;;;;7.13;6.45;;;21.80;44.40;;;;;;5129124;27;20544;-58
2023/02/22 11:49:18;;;;;;;5.15;4.70;;;21.70;44.50;;;;;;5128016;27;20126;-57
2023/02/22 11:51:58;;;;;;;9.77;5.90;;;21.70;44.50;;;;;;5128867;27;20066;-55
2023/02/22 11:55:05;;;;;;;8.77;6.10;;;21.70;44.50;;;;;;5128716;27;20066;-58
2023/02/22 11:57:45;;;;;;;6.72;5.68;;;21.70;44.50;;;;;;5128710;27;20393;-58
2023/02/22 12:00:23;;;;;;;6.50;5.90;;;21.60;44.60;;;;;;5128637;27;20284;-57
2023/02/22 12:03:19;;;;;;;9.18;7.07;;;21.60;44.60;;;;;;5129063;27;20859;-57
2023/02/22 12:06:05;;;;;;;6.90;6.13;;;21.60;44.60;;;;;;5128570;27;20062;-57
2023/02/22 12:08:49;;;;;;;7.15;5.72;;;21.60;44.60;;;;;;5109516;27;20350;-57
2023/02/22 12:11:21;;;;;;;9.30;6.38;;;21.50;44.50;;;;;;5128692;27;20084;-56
2023/02/22 12:14:06;;;;;;;7.68;5.22;;;21.50;44.60;;;;;;5128629;27;20128;-58
2023/02/22 12:16:46;;;;;;;9.00;6.53;;;21.50;44.60;;;;;;5128510;27;20035;-57
2023/02/22 12:19:21;;;;;;;6.50;5.40;;;21.50;45.20;;;;;;5127983;27;20047;-57
2023/02/22 12:21:55;;;;;;;6.70;5.90;;;21.50;44.60;;;;;;5127431;27;20047;-58
2023/02/22 12:24:29;;;;;;;6.72;5.90;;;21.50;44.60;;;;;;5127324;27;20123;-58
2023/02/22 12:27:02;;;;;;;8.55;6.90;;;21.50;44.60;;;;;;5128028;27;20130;-58
2023/02/22 12:29:36;;;;;;;7.10;6.22;;;21.40;44.60;;;;;;5108617;27;20500;-57
2023/02/22 12:32:07;;;;;;;6.90;6.05;;;21.40;44.60;;;;;;5127717;27;20043;-57
2023/02/22 12:34:39;;;;;;;6.18;5.32;;;21.40;44.50;;;;;;5127121;27;20039;-58
2023/02/22 12:37:16;;;;;;;9.73;6.32;;;21.40;44.60;;;;;;5127826;27;20337;-58
2023/02/22 12:39:50;;;;;;;;;;;21.40;44.40;;;;;;5127476;27;20143;-56
2023/02/22 12:42:21;;;;;;;7.50;5.90;;;21.40;44.50;;;;;;5127882;27;20619;-56
2023/02/22 12:44:55;;;;;;;8.82;6.40;;;21.30;44.60;;;;;;5127325;27;20073;-57
2023/02/22 12:47:30;;;;;;;7.47;5.63;;;21.30;44.50;;;;;;5127543;27;20039;-57
2023/02/22 12:50:03;;;;;;;8.30;6.28;;;21.30;44.50;;;;;;5126342;27;20047;-54
2023/02/22 12:52:44;;;;;;;6.47;5.65;;;21.30;44.60;;;;;;5124060;27;20034;-57
2023/02/22 12:55:17;;;;;;;6.80;5.82;;;21.30;44.40;;;;;;5127282;27;20126;-57
2023/02/22 12:57:52;;;;;;;6.75;6.10;;;21.30;44.40;;;;;;5127404;27;20503;-58
2023/02/22 13:00:25;;;;;;;9.38;5.93;;;21.30;44.30;;;;;;5127300;27;20515;-55
2023/02/22 13:03:00;;;;;;;5.75;5.18;;;21.30;44.40;;;;;;5127291;27;20896;-55